Startpagina
METAR-TAF:

METAR-TAF

Vliegvelden :

Teheran Mehrabad International Airport

Teheran, Iran

breedte: 35-41N, lengte: 051-21E, hoogte: 1204 m

Actueel weer

Dit bericht is 28 minuten geleden gemaakt, om 23:30 UTC
Wind 6 kt uit het noordnoordwesten
Temperatuur 26°C
Vochtigheid 23%
Druk 1009 hPa
Zicht 10 km of meer
geen wolken onder 1500 m en geen cumulonimbus

METAR: OIII 172330Z 33006KT CAVOK 26/03 Q1008 A2979

Tijdstip: 04:28 (23:58 UTC)

Verwachting

Dit bericht is 58 minuten geleden gemaakt, om 23:00 UTC
Verwachting geldig van 18 om 00 UTC tot 19 om 06 UTC
Wind 8 kt uit het noordwesten
Zicht 10 km of meer
geen wolken onder 1500 m en geen cumulonimbus
Tijdelijke
van 18 om 12 UTC tot 18 om 18 UTC
Wind 17 kt uit het noordwesten

TAF: OIII 172300Z 1800/1906 31004MPS CAVOK TEMPO 1812/1818 32009MPS

Waarnemingen en weersverwachtingen van meer dan 4000 vliegvelden (METAR en TAF).

De beschikbare stations zijn de gele en rode punten op de kaart.

Ga met uw muis naar het station om de naam te zien.

Klik dan om waarnemingen en weersverwachtingen te zien.

kaart wijzigen: klik op de groene knoppen met een zwart kruis om in te zoomen, op de groene knop met een streepje om uit te zoomen of op de groene pijlen voor aangrenzende kaarten.


METAR-TAF: